createdAt,value
2022-09-06T00:00:19.909Z,7.90
2022-09-06T00:02:25.965Z,6.88
2022-09-06T00:04:30.467Z,8.35
2022-09-06T00:06:34.826Z,7.25
2022-09-06T00:08:39.871Z,7.35
2022-09-06T00:10:44.635Z,7.05
2022-09-06T00:12:49.240Z,7.57
2022-09-06T00:14:54.076Z,6.95
2022-09-06T00:16:58.562Z,6.95
2022-09-06T00:19:04.455Z,8.70
2022-09-06T00:21:17.820Z,7.00
2022-09-06T00:23:22.321Z,7.95
2022-09-06T00:25:27.385Z,7.47
2022-09-06T00:27:31.884Z,7.43
2022-09-06T00:29:36.944Z,7.57
2022-09-06T00:31:41.344Z,7.20
2022-09-06T00:33:45.970Z,7.60
2022-09-06T00:35:51.869Z,7.15
2022-09-06T00:37:59.221Z,7.47
2022-09-06T00:40:04.165Z,7.15
2022-09-06T00:42:10.020Z,7.57
2022-09-06T00:44:15.271Z,7.50
2022-09-06T00:46:22.795Z,7.70
2022-09-06T00:48:27.677Z,6.50
2022-09-06T00:50:32.330Z,7.18
2022-09-06T00:52:40.548Z,6.72
2022-09-06T00:54:45.331Z,6.68
2022-09-06T00:56:50.227Z,6.55
2022-09-06T00:58:54.847Z,7.75
2022-09-06T01:00:59.341Z,7.40
2022-09-06T01:03:04.627Z,7.47
2022-09-06T01:05:10.840Z,7.28
2022-09-06T01:07:22.091Z,7.15
2022-09-06T01:09:53.594Z,6.18
2022-09-06T01:12:15.900Z,6.03
2022-09-06T01:14:36.220Z,5.60
2022-09-06T01:16:51.034Z,6.07
2022-09-06T01:19:13.477Z,6.30
2022-09-06T01:21:27.642Z,6.82
2022-09-06T01:24:05.891Z,7.00
2022-09-06T01:26:46.708Z,6.90
2022-09-06T01:28:54.282Z,6.97
2022-09-06T01:31:06.621Z,7.15
2022-09-06T01:33:18.175Z,7.10
2022-09-06T01:35:29.961Z,6.80
2022-09-06T01:37:35.136Z,7.15
2022-09-06T01:39:41.248Z,6.65
2022-09-06T01:41:46.131Z,7.22
2022-09-06T01:43:55.325Z,7.13
2022-09-06T01:46:08.582Z,6.88
2022-09-06T01:48:26.084Z,7.22
2022-09-06T01:50:59.331Z,6.90
2022-09-06T01:53:18.777Z,7.53
2022-09-06T01:55:32.474Z,7.70
2022-09-06T01:57:58.425Z,7.90
2022-09-06T02:00:09.170Z,7.88
2022-09-06T02:02:25.635Z,7.78
2022-09-06T02:04:33.442Z,7.25
2022-09-06T02:06:44.067Z,7.50
2022-09-06T02:08:52.803Z,7.72
2022-09-06T02:11:00.504Z,6.97
2022-09-06T02:13:09.134Z,7.68
2022-09-06T02:15:18.403Z,8.63
2022-09-06T02:17:27.580Z,9.40
2022-09-06T02:19:38.014Z,8.25
2022-09-06T02:21:46.491Z,8.45
2022-09-06T02:23:52.362Z,8.88
2022-09-06T02:26:00.747Z,7.45
2022-09-06T02:28:05.654Z,8.35
2022-09-06T02:30:11.182Z,8.23
2022-09-06T02:32:21.406Z,9.30
2022-09-06T02:34:25.852Z,8.52
2022-09-06T02:36:32.480Z,7.43
2022-09-06T02:38:39.301Z,6.57
2022-09-06T02:40:44.419Z,6.43
2022-09-06T02:42:48.888Z,5.78
2022-09-06T02:44:53.199Z,6.47
2022-09-06T02:46:57.685Z,6.20
2022-09-06T02:49:03.969Z,5.20
2022-09-06T02:51:17.989Z,6.65
2022-09-06T02:53:22.377Z,5.32
2022-09-06T02:55:26.735Z,6.32
2022-09-06T02:57:31.109Z,6.82
2022-09-06T02:59:36.263Z,6.60
2022-09-06T03:01:40.937Z,5.63
2022-09-06T03:03:45.693Z,5.82
2022-09-06T03:05:53.469Z,6.22
2022-09-06T03:07:58.681Z,6.00
2022-09-06T03:10:03.210Z,7.50
2022-09-06T03:12:08.335Z,7.47
2022-09-06T03:14:12.807Z,7.72
2022-09-06T03:16:17.286Z,6.50
2022-09-06T03:18:21.861Z,7.70
2022-09-06T03:20:26.754Z,6.82
2022-09-06T03:22:32.963Z,6.93
2022-09-06T03:24:37.739Z,6.68
2022-09-06T03:26:42.208Z,7.53
2022-09-06T03:28:46.851Z,6.90
2022-09-06T03:30:52.890Z,7.22
2022-09-06T03:33:00.773Z,7.00
2022-09-06T03:35:07.942Z,6.97
2022-09-06T03:37:12.481Z,6.78
2022-09-06T03:39:18.572Z,7.00
2022-09-06T03:41:23.435Z,7.68
2022-09-06T03:43:28.905Z,7.47
2022-09-06T03:45:33.532Z,7.80
2022-09-06T03:47:38.092Z,8.05
2022-09-06T03:49:42.497Z,8.70
2022-09-06T03:51:47.445Z,9.20
2022-09-06T03:53:52.487Z,9.40
2022-09-06T03:55:59.477Z,10.63
2022-09-06T03:58:03.870Z,11.00
2022-09-06T04:00:10.778Z,11.02
2022-09-06T04:02:19.061Z,11.37
2022-09-06T04:04:23.732Z,11.70
2022-09-06T04:06:28.379Z,12.18
2022-09-06T04:08:33.828Z,12.95
2022-09-06T04:10:38.939Z,13.15
2022-09-06T04:12:46.388Z,11.98
2022-09-06T04:14:50.897Z,12.18
2022-09-06T04:16:55.876Z,12.68
2022-09-06T04:19:02.883Z,12.50
2022-09-06T04:21:07.981Z,13.60
2022-09-06T04:23:12.476Z,13.20
2022-09-06T04:25:17.064Z,12.25
2022-09-06T04:27:21.711Z,12.63
2022-09-06T04:29:27.526Z,12.48
2022-09-06T04:31:32.002Z,12.00
2022-09-06T04:33:38.658Z,12.50
2022-09-06T04:35:43.528Z,13.25
2022-09-06T04:37:47.941Z,13.00
2022-09-06T04:39:52.571Z,13.13
2022-09-06T04:41:57.102Z,12.18
2022-09-06T04:44:01.929Z,12.65
2022-09-06T04:46:12.050Z,11.93
2022-09-06T04:48:16.825Z,12.80
2022-09-06T04:50:21.547Z,14.32
2022-09-06T04:52:29.977Z,12.95
2022-09-06T04:54:34.744Z,12.63
2022-09-06T04:56:39.153Z,12.50
2022-09-06T04:58:43.905Z,13.70
2022-09-06T05:00:48.513Z,14.10
2022-09-06T05:02:54.815Z,13.70
2022-09-06T05:04:59.685Z,14.40
2022-09-06T05:07:23.695Z,13.40
2022-09-06T05:09:28.212Z,14.18
2022-09-06T05:11:32.824Z,13.20
2022-09-06T05:13:37.690Z,13.80
2022-09-06T05:15:42.136Z,13.95
2022-09-06T05:17:46.769Z,13.68
2022-09-06T05:19:55.202Z,14.63
2022-09-06T05:22:00.553Z,13.25
2022-09-06T05:24:04.998Z,14.77
2022-09-06T05:26:10.213Z,15.45
2022-09-06T05:28:15.850Z,15.55
2022-09-06T05:30:20.547Z,15.35
2022-09-06T05:32:25.376Z,15.25
2022-09-06T05:34:29.888Z,15.15
2022-09-06T05:36:36.221Z,15.18
2022-09-06T05:38:40.755Z,13.70
2022-09-06T05:40:45.370Z,14.65
2022-09-06T05:42:50.166Z,13.23
2022-09-06T05:44:54.689Z,12.85
2022-09-06T05:46:59.869Z,13.32
2022-09-06T05:49:08.208Z,13.25
2022-09-06T05:51:17.111Z,12.43
2022-09-06T05:53:23.423Z,11.75
2022-09-06T05:55:27.933Z,12.38
2022-09-06T05:57:32.432Z,12.38
2022-09-06T05:59:37.026Z,11.63
2022-09-06T06:01:51.756Z,12.63
2022-09-06T06:03:57.515Z,11.10
2022-09-06T06:06:06.547Z,11.57
2022-09-06T06:08:11.254Z,11.18
2022-09-06T06:10:17.387Z,10.65
2022-09-06T06:12:23.739Z,11.63
2022-09-06T06:14:28.229Z,11.55
2022-09-06T06:16:35.265Z,11.73
2022-09-06T06:18:42.527Z,11.23
2022-09-06T06:20:47.027Z,11.90
2022-09-06T06:22:51.482Z,11.65
2022-09-06T06:24:55.836Z,12.43
2022-09-06T06:27:05.867Z,12.32
2022-09-06T06:29:10.405Z,12.07
2022-09-06T06:31:15.003Z,11.30
2022-09-06T06:33:33.494Z,11.13
2022-09-06T06:35:40.124Z,11.90
2022-09-06T06:37:45.950Z,10.90
2022-09-06T06:39:50.502Z,10.13
2022-09-06T06:41:55.808Z,10.13
2022-09-06T06:44:25.269Z,10.18
2022-09-06T06:46:31.415Z,9.43
2022-09-06T06:48:40.762Z,10.07
2022-09-06T06:50:49.249Z,9.20
2022-09-06T06:52:54.423Z,9.20
2022-09-06T06:54:59.123Z,10.70
2022-09-06T06:57:04.515Z,8.68
2022-09-06T06:59:13.633Z,10.00
2022-09-06T07:01:29.530Z,9.75
2022-09-06T07:03:38.993Z,10.00
2022-09-06T07:08:12.474Z,10.43
2022-09-06T07:12:37.273Z,11.10
2022-09-06T07:14:41.832Z,11.55
2022-09-06T07:16:48.237Z,12.20
2022-09-06T07:18:53.994Z,11.23
2022-09-06T07:25:50.065Z,11.50
2022-09-06T07:28:01.611Z,10.52
2022-09-06T07:30:09.963Z,9.73
2022-09-06T07:32:17.192Z,10.90
2022-09-06T07:34:22.323Z,10.32
2022-09-06T07:36:27.954Z,10.00
2022-09-06T07:38:32.871Z,10.50
2022-09-06T07:40:37.624Z,9.32
2022-09-06T07:42:42.705Z,9.63
2022-09-06T07:44:47.417Z,8.70
2022-09-06T07:46:52.644Z,9.05
2022-09-06T07:48:59.123Z,9.23
2022-09-06T07:51:08.445Z,8.38
2022-09-06T07:53:15.704Z,9.45
2022-09-06T07:55:24.100Z,8.02
2022-09-06T07:57:28.709Z,10.10
2022-09-06T07:59:33.235Z,8.57
2022-09-06T08:01:39.103Z,8.13
2022-09-06T08:03:44.109Z,9.18
2022-09-06T08:10:37.467Z,8.65
2022-09-06T08:12:42.253Z,8.38
2022-09-06T08:14:46.893Z,9.15
2022-09-06T08:16:51.723Z,8.35
2022-09-06T08:18:57.439Z,8.40
2022-09-06T08:21:12.982Z,9.25
2022-09-06T08:23:17.774Z,7.88
2022-09-06T08:25:23.036Z,8.43
2022-09-06T08:27:27.797Z,7.43
2022-09-06T08:29:32.264Z,7.82
2022-09-06T08:31:38.579Z,7.22
2022-09-06T08:33:44.048Z,6.00
2022-09-06T08:35:56.994Z,6.18
2022-09-06T08:38:03.029Z,5.95
2022-09-06T08:40:09.495Z,5.80
2022-09-06T08:42:14.808Z,5.22
2022-09-06T08:46:57.080Z,6.90
2022-09-06T08:49:01.721Z,6.85
2022-09-06T08:51:25.915Z,8.30
2022-09-06T08:53:33.914Z,7.43
2022-09-06T08:59:11.998Z,6.78
2022-09-06T09:01:23.312Z,6.72
2022-09-06T09:03:34.054Z,6.53
2022-09-06T09:05:41.039Z,6.65
2022-09-06T09:07:49.397Z,7.05
2022-09-06T09:10:03.298Z,6.77
2022-09-06T09:12:49.167Z,7.00
2022-09-06T09:19:31.230Z,5.50
2022-09-06T09:22:03.293Z,5.47
2022-09-06T09:24:12.459Z,5.70
2022-09-06T09:26:19.151Z,5.05
2022-09-06T09:28:29.614Z,6.18
2022-09-06T09:31:09.682Z,5.90
2022-09-06T09:33:24.277Z,5.75
2022-09-06T09:35:34.157Z,5.93
2022-09-06T09:39:49.311Z,5.78
2022-09-06T09:41:55.484Z,5.85
2022-09-06T09:44:04.866Z,5.32
2022-09-06T09:46:16.462Z,5.95
2022-09-06T09:48:27.302Z,6.60
2022-09-06T09:50:33.754Z,6.07
2022-09-06T09:52:45.681Z,5.78
2022-09-06T09:54:54.163Z,5.97
2022-09-06T09:57:00.517Z,5.55
2022-09-06T09:59:17.381Z,5.38
2022-09-06T10:01:30.348Z,6.15
2022-09-06T10:03:35.240Z,5.63
2022-09-06T10:05:40.972Z,5.93
2022-09-06T10:07:49.741Z,6.53
2022-09-06T10:10:01.447Z,5.30
2022-09-06T10:12:09.375Z,5.70
2022-09-06T10:14:18.333Z,6.00
2022-09-06T10:16:43.519Z,6.03
2022-09-06T10:18:52.887Z,5.70
2022-09-06T10:21:00.813Z,6.78
2022-09-06T10:23:12.407Z,6.35
2022-09-06T10:25:54.968Z,5.68
2022-09-06T10:28:32.310Z,5.63
2022-09-06T10:30:41.755Z,5.55
2022-09-06T10:32:53.509Z,5.93
2022-09-06T10:35:11.179Z,6.50
2022-09-06T10:37:45.967Z,6.60
2022-09-06T10:39:59.762Z,7.22
2022-09-06T10:42:24.398Z,6.20
2022-09-06T10:45:33.428Z,6.45
2022-09-06T10:48:14.024Z,6.53
2022-09-06T10:50:46.778Z,7.20
2022-09-06T10:52:56.404Z,6.40
2022-09-06T10:55:11.171Z,5.82
2022-09-06T11:00:01.679Z,5.95
2022-09-06T11:02:18.914Z,5.80
2022-09-06T11:07:25.871Z,5.90
2022-09-06T11:10:14.972Z,6.30
2022-09-06T11:13:06.696Z,5.88
2022-09-06T11:15:19.775Z,5.90
2022-09-06T11:17:36.287Z,5.90
2022-09-06T11:19:50.808Z,6.15
2022-09-06T11:22:23.208Z,6.68
2022-09-06T11:24:43.852Z,6.72
2022-09-06T11:27:02.616Z,6.70
2022-09-06T11:29:10.935Z,6.10
2022-09-06T11:34:04.977Z,6.70
2022-09-06T11:36:27.961Z,6.78
2022-09-06T11:38:44.565Z,6.47
2022-09-06T11:41:30.093Z,6.15
2022-09-06T11:43:47.422Z,5.97
2022-09-06T11:45:53.490Z,5.75
2022-09-06T11:48:35.629Z,6.32
2022-09-06T11:51:02.898Z,6.40
2022-09-06T11:53:28.212Z,5.60
2022-09-06T11:55:39.410Z,6.03
2022-09-06T11:57:44.791Z,6.20
2022-09-06T12:00:07.871Z,6.00
2022-09-06T12:02:32.078Z,5.75
2022-09-06T12:05:22.811Z,6.10
2022-09-06T12:08:40.966Z,6.80
2022-09-06T12:11:46.809Z,6.03
2022-09-06T12:14:29.426Z,5.95
2022-09-06T12:21:44.324Z,6.60
2022-09-06T12:25:08.322Z,6.60
2022-09-06T12:28:57.776Z,6.57
2022-09-06T12:31:39.739Z,6.13
2022-09-06T12:34:18.018Z,6.57
2022-09-06T12:37:12.928Z,5.72
2022-09-06T12:40:08.186Z,6.10
2022-09-06T12:43:25.159Z,5.82
2022-09-06T12:46:32.842Z,5.78
2022-09-06T12:49:30.632Z,6.22
2022-09-06T12:51:39.881Z,6.57
2022-09-06T12:53:53.788Z,7.00
2022-09-06T12:56:06.271Z,6.32
2022-09-06T12:58:14.147Z,5.63
2022-09-06T13:00:26.411Z,5.68
2022-09-06T13:02:35.565Z,7.50
2022-09-06T13:04:49.023Z,6.38
2022-09-06T13:06:54.692Z,6.30
2022-09-06T13:09:01.242Z,6.40
2022-09-06T13:11:13.521Z,6.03
2022-09-06T13:13:23.718Z,6.50
2022-09-06T13:15:31.357Z,5.80
2022-09-06T13:17:38.289Z,6.22
2022-09-06T13:19:43.397Z,5.80
2022-09-06T13:21:49.628Z,6.20
2022-09-06T13:23:54.356Z,5.85
2022-09-06T13:26:00.247Z,6.22
2022-09-06T13:28:04.906Z,6.07
2022-09-06T13:30:11.746Z,6.43
2022-09-06T13:32:16.320Z,6.43
2022-09-06T13:34:25.352Z,5.53
2022-09-06T13:36:32.459Z,6.43
2022-09-06T13:38:41.823Z,6.72
2022-09-06T13:41:10.077Z,6.05
2022-09-06T13:43:17.578Z,6.10
2022-09-06T13:45:28.616Z,6.63
2022-09-06T13:47:33.126Z,5.88
2022-09-06T13:49:37.625Z,6.00
2022-09-06T13:51:44.524Z,6.50
2022-09-06T13:53:50.012Z,6.40
2022-09-06T13:55:57.301Z,6.10
2022-09-06T13:58:01.769Z,6.78
2022-09-06T14:00:09.464Z,6.07
2022-09-06T14:02:18.093Z,6.13
2022-09-06T14:04:23.522Z,6.32
2022-09-06T14:06:28.293Z,6.50
2022-09-06T14:08:49.677Z,6.18
2022-09-06T14:11:04.759Z,6.28
2022-09-06T14:13:11.316Z,6.00
2022-09-06T14:15:19.520Z,6.57
2022-09-06T14:17:25.954Z,6.68
2022-09-06T14:19:31.262Z,6.72
2022-09-06T14:21:47.526Z,6.57
2022-09-06T14:24:04.490Z,6.60
2022-09-06T14:26:14.253Z,6.43
2022-09-06T14:28:21.586Z,6.63
2022-09-06T14:30:28.203Z,6.90
2022-09-06T14:32:32.977Z,6.70
2022-09-06T14:34:38.360Z,6.57
2022-09-06T14:36:43.753Z,6.45
2022-09-06T14:39:50.796Z,6.38
2022-09-06T14:55:55.963Z,6.07
2022-09-06T14:58:01.189Z,5.80
2022-09-06T15:00:08.743Z,6.50
2022-09-06T15:02:13.386Z,6.03
2022-09-06T15:04:22.126Z,6.57
2022-09-06T15:06:28.047Z,6.88
2022-09-06T15:08:32.680Z,6.38
2022-09-06T15:10:37.643Z,6.65
2022-09-06T15:12:42.291Z,6.25
2022-09-06T15:14:47.106Z,6.80
2022-09-06T15:16:58.257Z,6.50
2022-09-06T15:19:03.759Z,6.93
2022-09-06T15:21:14.765Z,7.30
2022-09-06T15:23:25.207Z,6.32
2022-09-06T15:25:30.325Z,8.95
2022-09-06T15:27:34.950Z,8.80
2022-09-06T15:29:39.751Z,7.07
2022-09-06T15:31:50.532Z,7.18
2022-09-06T15:33:55.777Z,7.30
2022-09-06T15:36:06.186Z,7.50
2022-09-06T15:38:13.305Z,6.93
2022-09-06T15:40:19.609Z,6.65
2022-09-06T15:42:24.168Z,7.05
2022-09-06T15:44:28.682Z,6.45
2022-09-06T15:46:48.702Z,6.00
2022-09-06T15:48:56.843Z,7.15
2022-09-06T15:51:04.342Z,7.97
2022-09-06T15:53:09.013Z,7.65
2022-09-06T15:55:32.368Z,10.98
2022-09-06T15:57:37.389Z,9.35
2022-09-06T15:59:42.333Z,7.78
2022-09-06T16:01:47.319Z,8.18
2022-09-06T16:03:53.926Z,8.57
2022-09-06T16:08:29.100Z,10.10
2022-09-06T16:10:39.971Z,10.68
2022-09-06T16:12:48.617Z,10.70
2022-09-06T16:14:55.023Z,12.50
2022-09-06T16:17:01.937Z,15.18
2022-09-06T16:19:07.386Z,13.43
2022-09-06T16:21:15.143Z,14.57
2022-09-06T16:23:20.103Z,14.85
2022-09-06T16:25:25.413Z,13.63
2022-09-06T16:27:31.284Z,10.32
2022-09-06T16:29:35.732Z,11.50
2022-09-06T16:31:41.048Z,11.10
2022-09-06T16:33:45.943Z,11.07
2022-09-06T16:35:50.707Z,12.82
2022-09-06T16:37:55.319Z,10.18
2022-09-06T16:39:59.838Z,11.10
2022-09-06T16:42:04.536Z,8.23
2022-09-06T16:44:14.586Z,7.85
2022-09-06T16:46:19.532Z,8.52
2022-09-06T16:48:24.405Z,10.90
2022-09-06T16:50:29.227Z,9.18
2022-09-06T16:52:34.638Z,9.98
2022-09-06T16:54:39.108Z,8.25
2022-09-06T16:56:44.316Z,8.23
2022-09-06T16:58:52.666Z,8.13
2022-09-06T17:00:58.650Z,7.57
2022-09-06T17:03:03.246Z,8.35
2022-09-06T17:05:09.555Z,8.80
2022-09-06T17:07:13.939Z,8.82
2022-09-06T17:09:20.390Z,8.35
2022-09-06T17:11:24.914Z,7.50
2022-09-06T17:13:30.399Z,8.43
2022-09-06T17:15:55.078Z,8.43
2022-09-06T17:17:59.875Z,7.13
2022-09-06T17:20:05.078Z,8.30
2022-09-06T17:22:10.648Z,9.60
2022-09-06T17:24:15.697Z,9.07
2022-09-06T17:26:21.332Z,9.00
2022-09-06T17:28:26.109Z,8.65
2022-09-06T17:30:31.233Z,8.48
2022-09-06T17:32:36.683Z,9.77
2022-09-06T17:34:42.787Z,8.13
2022-09-06T17:36:47.283Z,8.38
2022-09-06T17:38:53.523Z,9.30
2022-09-06T17:41:00.055Z,10.05
2022-09-06T17:43:05.227Z,9.57
2022-09-06T17:45:10.404Z,8.82
2022-09-06T17:47:16.195Z,8.43
2022-09-06T17:49:21.083Z,8.57
2022-09-06T17:51:27.588Z,7.78
2022-09-06T17:53:32.063Z,7.82
2022-09-06T17:55:41.450Z,9.55
2022-09-06T17:57:45.814Z,8.25
2022-09-06T17:59:50.340Z,8.07
2022-09-06T18:01:54.902Z,7.95
2022-09-06T18:04:00.809Z,8.50
2022-09-06T18:06:08.005Z,8.38
2022-09-06T18:08:16.319Z,8.23
2022-09-06T18:10:21.349Z,9.57
2022-09-06T18:12:31.361Z,9.15
2022-09-06T18:14:54.127Z,8.95
2022-09-06T18:17:16.397Z,8.18
2022-09-06T18:19:22.386Z,9.68
2022-09-06T18:21:29.136Z,8.73
2022-09-06T18:23:36.339Z,8.88
2022-09-06T18:25:41.204Z,9.43
2022-09-06T18:27:45.951Z,9.63
2022-09-06T18:29:54.020Z,8.35
2022-09-06T18:31:58.501Z,8.40
2022-09-06T18:34:04.602Z,8.15
2022-09-06T18:36:10.620Z,7.70
2022-09-06T18:38:15.453Z,8.95
2022-09-06T18:40:21.862Z,7.65
2022-09-06T18:42:27.524Z,8.48
2022-09-06T18:44:33.699Z,7.93
2022-09-06T18:46:39.642Z,7.95
2022-09-06T18:48:44.457Z,8.38
2022-09-06T18:50:48.954Z,7.93
2022-09-06T18:52:56.925Z,9.20
2022-09-06T18:55:01.776Z,8.07
2022-09-06T18:57:11.380Z,8.70
2022-09-06T18:59:16.315Z,8.10
2022-09-06T19:01:23.486Z,7.82
2022-09-06T19:03:28.998Z,8.23
2022-09-06T19:05:36.901Z,7.43
2022-09-06T19:07:50.063Z,8.18
2022-09-06T19:09:59.783Z,8.38
2022-09-06T19:12:15.305Z,8.32
2022-09-06T19:14:39.203Z,8.18
2022-09-06T19:16:54.816Z,8.18
2022-09-06T19:19:08.512Z,8.45
2022-09-06T19:21:15.788Z,8.38
2022-09-06T19:23:22.704Z,7.97
2022-09-06T19:25:30.622Z,8.35
2022-09-06T19:27:37.808Z,8.35
2022-09-06T19:29:42.657Z,8.13
2022-09-06T19:31:52.482Z,8.70
2022-09-06T19:36:11.619Z,9.25
2022-09-06T19:38:17.243Z,8.80
2022-09-06T19:40:27.617Z,8.52
2022-09-06T19:42:32.865Z,9.48
2022-09-06T19:44:39.464Z,9.43
2022-09-06T19:46:55.292Z,8.82
2022-09-06T19:49:03.017Z,9.40
2022-09-06T19:51:11.324Z,9.75
2022-09-06T19:53:29.784Z,10.15
2022-09-06T19:55:35.339Z,10.57
2022-09-06T19:57:39.930Z,10.50
2022-09-06T19:59:46.409Z,11.27
2022-09-06T20:01:51.505Z,10.82
2022-09-06T20:04:00.103Z,10.88
2022-09-06T20:06:05.591Z,10.55
2022-09-06T20:08:11.141Z,10.23
2022-09-06T20:10:17.920Z,9.43
2022-09-06T20:12:22.759Z,9.32
2022-09-06T20:14:27.580Z,9.20
2022-09-06T20:16:38.131Z,10.05
2022-09-06T20:18:48.641Z,9.23
2022-09-06T20:21:01.625Z,9.88
2022-09-06T20:23:07.398Z,10.23
2022-09-06T20:25:12.547Z,9.68
2022-09-06T20:27:17.604Z,10.30
2022-09-06T20:29:22.747Z,11.23
2022-09-06T20:31:29.198Z,10.18
2022-09-06T20:33:35.906Z,11.15
2022-09-06T20:35:40.583Z,9.98
2022-09-06T20:37:45.207Z,10.65
2022-09-06T20:39:49.767Z,10.00
2022-09-06T20:41:54.284Z,9.23
2022-09-06T20:44:00.989Z,8.45
2022-09-06T20:46:06.952Z,9.07
2022-09-06T20:48:11.749Z,9.10
2022-09-06T20:50:18.677Z,9.13
2022-09-06T20:52:23.158Z,8.88
2022-09-06T20:54:27.887Z,10.05
2022-09-06T20:56:34.486Z,11.10
2022-09-06T20:58:39.135Z,11.48
2022-09-06T21:00:43.597Z,12.70
2022-09-06T21:02:48.120Z,10.65
2022-09-06T21:04:52.505Z,12.07
2022-09-06T21:06:58.240Z,11.85
2022-09-06T21:09:02.985Z,11.85
2022-09-06T21:11:08.566Z,11.60
2022-09-06T21:15:52.687Z,11.70
2022-09-06T21:17:57.324Z,10.60
2022-09-06T21:20:01.792Z,11.13
2022-09-06T21:22:09.182Z,11.35
2022-09-06T21:24:13.933Z,11.10
2022-09-06T21:26:19.333Z,11.52
2022-09-06T21:28:23.827Z,11.13
2022-09-06T21:30:28.357Z,10.60
2022-09-06T21:32:33.722Z,10.85
2022-09-06T21:34:38.201Z,10.65
2022-09-06T21:36:43.666Z,10.88
2022-09-06T21:38:51.396Z,10.90
2022-09-06T21:40:56.031Z,12.45
2022-09-06T21:43:07.985Z,11.30
2022-09-06T21:45:13.317Z,10.93
2022-09-06T21:47:17.907Z,10.60
2022-09-06T21:49:22.472Z,10.70
2022-09-06T21:51:28.533Z,10.27
2022-09-06T21:53:33.333Z,10.43
2022-09-06T21:55:39.941Z,10.35
2022-09-06T21:57:44.431Z,11.43
2022-09-06T21:59:49.088Z,9.75
2022-09-06T22:01:54.565Z,9.95
2022-09-06T22:04:00.606Z,9.50
2022-09-06T22:06:10.749Z,9.02
2022-09-06T22:08:15.421Z,9.38
2022-09-06T22:10:20.258Z,8.98
2022-09-06T22:12:26.144Z,8.80
2022-09-06T22:14:30.720Z,8.27
2022-09-06T22:16:37.493Z,8.45
2022-09-06T22:18:42.558Z,7.95
2022-09-06T22:20:47.299Z,8.50
2022-09-06T22:22:52.070Z,7.10
2022-09-06T22:24:56.452Z,7.35
2022-09-06T22:27:01.170Z,7.20
2022-09-06T22:29:10.836Z,6.68
2022-09-06T22:31:18.629Z,7.28
2022-09-06T22:33:23.152Z,7.88
2022-09-06T22:35:27.807Z,6.10
2022-09-06T22:37:32.231Z,6.85
2022-09-06T22:39:36.936Z,7.43
2022-09-06T22:41:41.354Z,6.53
2022-09-06T22:43:45.931Z,7.40
2022-09-06T22:45:52.213Z,6.32
2022-09-06T22:47:56.850Z,6.40
2022-09-06T22:50:01.228Z,6.57
2022-09-06T22:52:07.757Z,6.07
2022-09-06T22:54:12.358Z,7.30
2022-09-06T22:56:17.081Z,7.60
2022-09-06T22:58:21.523Z,8.52
2022-09-06T23:00:27.015Z,8.25
2022-09-06T23:02:33.317Z,7.72
2022-09-06T23:04:37.842Z,7.25
2022-09-06T23:06:42.262Z,7.40
2022-09-06T23:08:47.140Z,7.50
2022-09-06T23:10:51.597Z,6.38
2022-09-06T23:12:56.158Z,6.85
2022-09-06T23:15:00.797Z,7.10
2022-09-06T23:17:05.550Z,8.23
2022-09-06T23:19:11.720Z,9.40
2022-09-06T23:21:18.547Z,9.98
2022-09-06T23:23:22.867Z,9.05
2022-09-06T23:25:27.585Z,9.05
2022-09-06T23:27:32.322Z,8.30
2022-09-06T23:29:36.843Z,8.10
2022-09-06T23:31:42.597Z,9.15
2022-09-06T23:33:47.269Z,8.00
2022-09-06T23:35:57.531Z,8.15
2022-09-06T23:38:01.982Z,8.73
2022-09-06T23:40:09.224Z,7.57
2022-09-06T23:42:14.507Z,7.72
2022-09-06T23:44:19.083Z,8.30
2022-09-06T23:46:23.665Z,8.25
2022-09-06T23:48:28.318Z,7.65
2022-09-06T23:50:33.152Z,7.88
2022-09-06T23:52:39.081Z,8.80
2022-09-06T23:54:43.444Z,8.30
2022-09-06T23:56:48.356Z,7.22
2022-09-06T23:58:52.811Z,7.88
